sensor_id;sensor_type;location;lat;lon;timestamp;P1;durP1;ratioP1;P2;durP2;ratioP2
72113;SDS011;59989;46.220;19.888;2023-07-08T00:00:18;0.90;;;0.30;;
72113;SDS011;59989;46.220;19.888;2023-07-08T00:03:24;1.67;;;0.55;;
72113;SDS011;59989;46.220;19.888;2023-07-08T00:06:27;1.27;;;0.50;;
72113;SDS011;59989;46.220;19.888;2023-07-08T00:09:30;1.20;;;0.40;;
72113;SDS011;59989;46.220;19.888;2023-07-08T00:12:32;1.63;;;0.68;;
72113;SDS011;59989;46.220;19.888;2023-07-08T00:15:35;0.70;;;0.30;;
72113;SDS011;59989;46.220;19.888;2023-07-08T00:18:38;2.17;;;0.40;;
72113;SDS011;59989;46.220;19.888;2023-07-08T00:21:41;0.90;;;0.40;;
72113;SDS011;59989;46.220;19.888;2023-07-08T00:24:43;0.65;;;0.30;;
72113;SDS011;59989;46.220;19.888;2023-07-08T00:27:46;1.08;;;0.50;;
72113;SDS011;59989;46.220;19.888;2023-07-08T00:30:49;0.80;;;0.30;;
72113;SDS011;59989;46.220;19.888;2023-07-08T00:33:55;0.90;;;0.38;;
72113;SDS011;59989;46.220;19.888;2023-07-08T00:36:59;1.37;;;0.50;;
72113;SDS011;59989;46.220;19.888;2023-07-08T00:40:02;0.90;;;0.30;;
72113;SDS011;59989;46.220;19.888;2023-07-08T00:43:25;1.75;;;0.70;;
72113;SDS011;59989;46.220;19.888;2023-07-08T00:46:40;1.38;;;0.50;;
72113;SDS011;59989;46.220;19.888;2023-07-08T00:49:56;0.80;;;0.30;;
72113;SDS011;59989;46.220;19.888;2023-07-08T00:53:21;1.30;;;0.40;;
72113;SDS011;59989;46.220;19.888;2023-07-08T00:56:28;0.75;;;0.30;;
72113;SDS011;59989;46.220;19.888;2023-07-08T00:59:43;0.90;;;0.30;;
72113;SDS011;59989;46.220;19.888;2023-07-08T01:02:54;1.17;;;0.50;;
72113;SDS011;59989;46.220;19.888;2023-07-08T01:05:59;0.80;;;0.30;;
72113;SDS011;59989;46.220;19.888;2023-07-08T01:09:02;0.93;;;0.30;;
72113;SDS011;59989;46.220;19.888;2023-07-08T01:12:08;1.08;;;0.47;;
72113;SDS011;59989;46.220;19.888;2023-07-08T01:15:18;0.80;;;0.30;;
72113;SDS011;59989;46.220;19.888;2023-07-08T01:18:24;1.00;;;0.35;;
72113;SDS011;59989;46.220;19.888;2023-07-08T01:21:36;0.70;;;0.30;;
72113;SDS011;59989;46.220;19.888;2023-07-08T01:24:41;2.37;;;0.67;;
72113;SDS011;59989;46.220;19.888;2023-07-08T01:27:46;0.82;;;0.30;;
72113;SDS011;59989;46.220;19.888;2023-07-08T01:30:51;1.40;;;0.57;;
72113;SDS011;59989;46.220;19.888;2023-07-08T01:33:55;0.60;;;0.20;;
72113;SDS011;59989;46.220;19.888;2023-07-08T01:36:59;0.95;;;0.35;;
72113;SDS011;59989;46.220;19.888;2023-07-08T01:43:36;2.28;;;0.70;;
72113;SDS011;59989;46.220;19.888;2023-07-08T01:46:39;0.65;;;0.30;;
72113;SDS011;59989;46.220;19.888;2023-07-08T01:49:42;0.93;;;0.40;;
72113;SDS011;59989;46.220;19.888;2023-07-08T01:52:48;1.48;;;0.73;;
72113;SDS011;59989;46.220;19.888;2023-07-08T01:55:54;1.63;;;0.70;;
72113;SDS011;59989;46.220;19.888;2023-07-08T01:58:57;1.00;;;0.38;;
72113;SDS011;59989;46.220;19.888;2023-07-08T02:02:00;0.98;;;0.40;;
72113;SDS011;59989;46.220;19.888;2023-07-08T02:05:02;0.98;;;0.38;;
72113;SDS011;59989;46.220;19.888;2023-07-08T02:08:05;3.80;;;0.65;;
72113;SDS011;59989;46.220;19.888;2023-07-08T02:11:08;1.00;;;0.40;;
72113;SDS011;59989;46.220;19.888;2023-07-08T02:14:10;1.20;;;0.40;;
72113;SDS011;59989;46.220;19.888;2023-07-08T02:17:13;1.48;;;0.65;;
72113;SDS011;59989;46.220;19.888;2023-07-08T02:20:18;1.15;;;0.40;;
72113;SDS011;59989;46.220;19.888;2023-07-08T02:23:21;1.25;;;0.45;;
72113;SDS011;59989;46.220;19.888;2023-07-08T02:26:23;1.00;;;0.40;;
72113;SDS011;59989;46.220;19.888;2023-07-08T02:29:26;1.00;;;0.30;;
72113;SDS011;59989;46.220;19.888;2023-07-08T02:32:30;1.45;;;0.70;;
72113;SDS011;59989;46.220;19.888;2023-07-08T02:35:36;0.70;;;0.30;;
72113;SDS011;59989;46.220;19.888;2023-07-08T02:38:39;1.15;;;0.40;;
72113;SDS011;59989;46.220;19.888;2023-07-08T02:41:43;0.77;;;0.27;;
72113;SDS011;59989;46.220;19.888;2023-07-08T02:44:46;0.80;;;0.30;;
72113;SDS011;59989;46.220;19.888;2023-07-08T02:47:49;1.00;;;0.32;;
72113;SDS011;59989;46.220;19.888;2023-07-08T02:50:58;0.93;;;0.30;;
72113;SDS011;59989;46.220;19.888;2023-07-08T02:54:04;0.90;;;0.32;;
72113;SDS011;59989;46.220;19.888;2023-07-08T02:57:07;0.73;;;0.30;;
72113;SDS011;59989;46.220;19.888;2023-07-08T03:00:11;0.80;;;0.30;;
72113;SDS011;59989;46.220;19.888;2023-07-08T03:03:15;0.88;;;0.30;;
72113;SDS011;59989;46.220;19.888;2023-07-08T03:06:19;1.20;;;0.50;;
72113;SDS011;59989;46.220;19.888;2023-07-08T03:09:23;1.23;;;0.50;;
72113;SDS011;59989;46.220;19.888;2023-07-08T03:12:26;1.10;;;0.33;;
72113;SDS011;59989;46.220;19.888;2023-07-08T03:15:29;0.95;;;0.35;;
72113;SDS011;59989;46.220;19.888;2023-07-08T03:18:31;1.15;;;0.40;;
72113;SDS011;59989;46.220;19.888;2023-07-08T03:21:41;1.05;;;0.40;;
72113;SDS011;59989;46.220;19.888;2023-07-08T03:24:44;1.48;;;0.60;;
72113;SDS011;59989;46.220;19.888;2023-07-08T03:27:52;0.90;;;0.30;;
72113;SDS011;59989;46.220;19.888;2023-07-08T03:30:55;0.88;;;0.30;;
72113;SDS011;59989;46.220;19.888;2023-07-08T03:33:58;0.90;;;0.30;;
72113;SDS011;59989;46.220;19.888;2023-07-08T03:37:03;1.50;;;0.60;;
72113;SDS011;59989;46.220;19.888;2023-07-08T03:40:08;1.48;;;0.50;;
72113;SDS011;59989;46.220;19.888;2023-07-08T03:43:12;1.33;;;0.60;;
72113;SDS011;59989;46.220;19.888;2023-07-08T03:46:15;1.40;;;0.57;;
72113;SDS011;59989;46.220;19.888;2023-07-08T03:49:18;1.25;;;0.63;;
72113;SDS011;59989;46.220;19.888;2023-07-08T03:52:25;1.50;;;0.60;;
72113;SDS011;59989;46.220;19.888;2023-07-08T03:55:27;1.67;;;0.50;;
72113;SDS011;59989;46.220;19.888;2023-07-08T03:58:32;1.00;;;0.40;;
72113;SDS011;59989;46.220;19.888;2023-07-08T04:01:34;1.08;;;0.40;;
72113;SDS011;59989;46.220;19.888;2023-07-08T04:04:37;1.65;;;0.52;;
72113;SDS011;59989;46.220;19.888;2023-07-08T04:07:41;0.80;;;0.30;;
72113;SDS011;59989;46.220;19.888;2023-07-08T04:10:43;1.48;;;0.50;;
72113;SDS011;59989;46.220;19.888;2023-07-08T04:13:46;0.90;;;0.40;;
72113;SDS011;59989;46.220;19.888;2023-07-08T04:16:53;1.58;;;0.65;;
72113;SDS011;59989;46.220;19.888;2023-07-08T04:20:01;1.00;;;0.40;;
72113;SDS011;59989;46.220;19.888;2023-07-08T04:23:05;0.93;;;0.40;;
72113;SDS011;59989;46.220;19.888;2023-07-08T04:26:08;0.90;;;0.40;;
72113;SDS011;59989;46.220;19.888;2023-07-08T04:29:11;2.97;;;1.33;;
72113;SDS011;59989;46.220;19.888;2023-07-08T04:32:18;1.40;;;0.50;;
72113;SDS011;59989;46.220;19.888;2023-07-08T04:35:21;1.65;;;0.70;;
72113;SDS011;59989;46.220;19.888;2023-07-08T04:38:24;1.00;;;0.30;;
72113;SDS011;59989;46.220;19.888;2023-07-08T04:41:27;1.20;;;0.40;;
72113;SDS011;59989;46.220;19.888;2023-07-08T04:44:29;0.80;;;0.30;;
72113;SDS011;59989;46.220;19.888;2023-07-08T04:47:34;1.10;;;0.40;;
72113;SDS011;59989;46.220;19.888;2023-07-08T04:50:36;1.10;;;0.40;;
72113;SDS011;59989;46.220;19.888;2023-07-08T04:53:39;1.10;;;0.38;;
72113;SDS011;59989;46.220;19.888;2023-07-08T04:56:42;0.90;;;0.30;;
72113;SDS011;59989;46.220;19.888;2023-07-08T04:59:46;1.10;;;0.40;;
72113;SDS011;59989;46.220;19.888;2023-07-08T05:02:49;1.15;;;0.40;;
72113;SDS011;59989;46.220;19.888;2023-07-08T05:05:51;1.10;;;0.40;;
72113;SDS011;59989;46.220;19.888;2023-07-08T05:08:54;0.90;;;0.30;;
72113;SDS011;59989;46.220;19.888;2023-07-08T05:11:56;0.95;;;0.30;;
72113;SDS011;59989;46.220;19.888;2023-07-08T05:14:59;1.17;;;0.43;;
72113;SDS011;59989;46.220;19.888;2023-07-08T05:18:01;1.13;;;0.40;;
72113;SDS011;59989;46.220;19.888;2023-07-08T05:21:04;0.98;;;0.32;;
72113;SDS011;59989;46.220;19.888;2023-07-08T05:24:07;1.45;;;0.60;;
72113;SDS011;59989;46.220;19.888;2023-07-08T05:27:10;1.23;;;0.45;;
72113;SDS011;59989;46.220;19.888;2023-07-08T05:30:16;0.93;;;0.37;;
72113;SDS011;59989;46.220;19.888;2023-07-08T05:33:20;1.15;;;0.40;;
72113;SDS011;59989;46.220;19.888;2023-07-08T05:36:22;1.42;;;0.50;;
72113;SDS011;59989;46.220;19.888;2023-07-08T05:39:25;1.10;;;0.40;;
72113;SDS011;59989;46.220;19.888;2023-07-08T05:42:27;1.27;;;0.47;;
72113;SDS011;59989;46.220;19.888;2023-07-08T05:45:30;1.57;;;0.57;;
72113;SDS011;59989;46.220;19.888;2023-07-08T05:48:33;2.17;;;0.80;;
72113;SDS011;59989;46.220;19.888;2023-07-08T05:51:35;1.15;;;0.40;;
72113;SDS011;59989;46.220;19.888;2023-07-08T05:54:38;1.35;;;0.50;;
72113;SDS011;59989;46.220;19.888;2023-07-08T05:57:42;1.40;;;0.60;;
72113;SDS011;59989;46.220;19.888;2023-07-08T06:00:44;1.00;;;0.30;;
72113;SDS011;59989;46.220;19.888;2023-07-08T06:03:47;1.48;;;0.50;;
72113;SDS011;59989;46.220;19.888;2023-07-08T06:06:49;1.15;;;0.40;;
72113;SDS011;59989;46.220;19.888;2023-07-08T06:09:52;1.17;;;0.40;;
72113;SDS011;59989;46.220;19.888;2023-07-08T06:12:54;1.10;;;0.40;;
72113;SDS011;59989;46.220;19.888;2023-07-08T06:15:57;1.43;;;0.50;;
72113;SDS011;59989;46.220;19.888;2023-07-08T06:18:59;1.35;;;0.47;;
72113;SDS011;59989;46.220;19.888;2023-07-08T06:22:02;3.15;;;0.80;;
72113;SDS011;59989;46.220;19.888;2023-07-08T06:25:25;1.38;;;0.57;;
72113;SDS011;59989;46.220;19.888;2023-07-08T06:28:27;1.70;;;0.68;;
72113;SDS011;59989;46.220;19.888;2023-07-08T06:31:30;1.10;;;0.40;;
72113;SDS011;59989;46.220;19.888;2023-07-08T06:34:32;1.55;;;0.60;;
72113;SDS011;59989;46.220;19.888;2023-07-08T06:37:35;1.63;;;0.60;;
72113;SDS011;59989;46.220;19.888;2023-07-08T06:40:37;1.30;;;0.50;;
72113;SDS011;59989;46.220;19.888;2023-07-08T06:43:40;1.40;;;0.50;;
72113;SDS011;59989;46.220;19.888;2023-07-08T06:46:48;1.60;;;0.67;;
72113;SDS011;59989;46.220;19.888;2023-07-08T06:49:51;1.40;;;0.50;;
72113;SDS011;59989;46.220;19.888;2023-07-08T06:52:53;2.95;;;0.70;;
72113;SDS011;59989;46.220;19.888;2023-07-08T06:55:55;4.05;;;0.65;;
72113;SDS011;59989;46.220;19.888;2023-07-08T06:58:58;1.23;;;0.40;;
72113;SDS011;59989;46.220;19.888;2023-07-08T07:02:00;2.50;;;0.97;;
72113;SDS011;59989;46.220;19.888;2023-07-08T07:05:03;1.30;;;0.40;;
72113;SDS011;59989;46.220;19.888;2023-07-08T07:08:06;1.25;;;0.40;;
72113;SDS011;59989;46.220;19.888;2023-07-08T07:11:10;1.75;;;0.63;;
72113;SDS011;59989;46.220;19.888;2023-07-08T07:14:12;1.95;;;0.73;;
72113;SDS011;59989;46.220;19.888;2023-07-08T07:17:18;3.40;;;0.63;;
72113;SDS011;59989;46.220;19.888;2023-07-08T07:20:24;1.45;;;0.50;;
72113;SDS011;59989;46.220;19.888;2023-07-08T07:23:27;1.60;;;0.60;;
72113;SDS011;59989;46.220;19.888;2023-07-08T07:26:29;1.63;;;0.60;;
72113;SDS011;59989;46.220;19.888;2023-07-08T07:29:40;1.85;;;0.70;;
72113;SDS011;59989;46.220;19.888;2023-07-08T07:32:47;1.73;;;0.63;;
72113;SDS011;59989;46.220;19.888;2023-07-08T07:35:50;1.85;;;0.75;;
72113;SDS011;59989;46.220;19.888;2023-07-08T07:38:52;1.60;;;0.57;;
72113;SDS011;59989;46.220;19.888;2023-07-08T07:41:55;1.75;;;0.70;;
72113;SDS011;59989;46.220;19.888;2023-07-08T07:44:57;2.42;;;0.80;;
72113;SDS011;59989;46.220;19.888;2023-07-08T07:48:00;1.33;;;0.50;;
72113;SDS011;59989;46.220;19.888;2023-07-08T07:51:04;1.95;;;0.70;;
72113;SDS011;59989;46.220;19.888;2023-07-08T07:54:07;1.63;;;0.60;;
72113;SDS011;59989;46.220;19.888;2023-07-08T07:57:10;1.40;;;0.50;;
72113;SDS011;59989;46.220;19.888;2023-07-08T08:00:12;1.65;;;0.60;;
72113;SDS011;59989;46.220;19.888;2023-07-08T08:03:19;1.47;;;0.50;;
72113;SDS011;59989;46.220;19.888;2023-07-08T08:06:23;1.90;;;0.95;;
72113;SDS011;59989;46.220;19.888;2023-07-08T08:09:26;3.25;;;0.57;;
72113;SDS011;59989;46.220;19.888;2023-07-08T08:12:28;1.60;;;0.60;;
72113;SDS011;59989;46.220;19.888;2023-07-08T08:15:45;1.52;;;0.55;;
72113;SDS011;59989;46.220;19.888;2023-07-08T08:18:48;2.57;;;1.07;;
72113;SDS011;59989;46.220;19.888;2023-07-08T08:21:50;1.70;;;0.60;;
72113;SDS011;59989;46.220;19.888;2023-07-08T08:24:53;1.65;;;0.60;;
72113;SDS011;59989;46.220;19.888;2023-07-08T08:27:56;1.60;;;0.52;;
72113;SDS011;59989;46.220;19.888;2023-07-08T08:30:58;1.70;;;0.50;;
72113;SDS011;59989;46.220;19.888;2023-07-08T08:34:01;1.70;;;0.70;;
72113;SDS011;59989;46.220;19.888;2023-07-08T08:37:04;1.40;;;0.50;;
72113;SDS011;59989;46.220;19.888;2023-07-08T08:40:08;1.67;;;0.63;;
72113;SDS011;59989;46.220;19.888;2023-07-08T08:43:20;1.55;;;0.57;;
72113;SDS011;59989;46.220;19.888;2023-07-08T08:49:50;1.60;;;0.60;;
72113;SDS011;59989;46.220;19.888;2023-07-08T08:53:16;1.35;;;0.50;;
72113;SDS011;59989;46.220;19.888;2023-07-08T08:56:20;1.70;;;0.60;;
72113;SDS011;59989;46.220;19.888;2023-07-08T09:03:16;1.60;;;0.60;;
72113;SDS011;59989;46.220;19.888;2023-07-08T09:09:30;1.30;;;0.50;;
72113;SDS011;59989;46.220;19.888;2023-07-08T09:12:43;1.92;;;0.77;;
72113;SDS011;59989;46.220;19.888;2023-07-08T09:15:46;1.60;;;0.60;;
72113;SDS011;59989;46.220;19.888;2023-07-08T09:18:56;1.65;;;0.60;;
72113;SDS011;59989;46.220;19.888;2023-07-08T09:22:09;2.03;;;0.77;;
72113;SDS011;59989;46.220;19.888;2023-07-08T09:28:36;2.30;;;0.75;;
72113;SDS011;59989;46.220;19.888;2023-07-08T09:31:42;1.40;;;0.50;;
72113;SDS011;59989;46.220;19.888;2023-07-08T09:34:52;2.75;;;0.98;;
72113;SDS011;59989;46.220;19.888;2023-07-08T09:37:56;1.80;;;0.60;;
72113;SDS011;59989;46.220;19.888;2023-07-08T09:41:00;1.88;;;0.65;;
72113;SDS011;59989;46.220;19.888;2023-07-08T09:44:04;1.75;;;0.60;;
72113;SDS011;59989;46.220;19.888;2023-07-08T09:47:23;2.15;;;0.80;;
72113;SDS011;59989;46.220;19.888;2023-07-08T09:50:28;1.92;;;0.70;;
72113;SDS011;59989;46.220;19.888;2023-07-08T09:53:33;1.67;;;0.60;;
72113;SDS011;59989;46.220;19.888;2023-07-08T09:56:40;2.05;;;0.80;;
72113;SDS011;59989;46.220;19.888;2023-07-08T09:59:49;1.90;;;0.60;;
72113;SDS011;59989;46.220;19.888;2023-07-08T10:02:55;1.58;;;0.57;;
72113;SDS011;59989;46.220;19.888;2023-07-08T10:06:02;1.90;;;0.60;;
72113;SDS011;59989;46.220;19.888;2023-07-08T10:09:10;2.47;;;1.03;;
72113;SDS011;59989;46.220;19.888;2023-07-08T10:12:20;1.63;;;0.60;;
72113;SDS011;59989;46.220;19.888;2023-07-08T10:15:27;3.08;;;1.10;;
72113;SDS011;59989;46.220;19.888;2023-07-08T10:18:35;2.05;;;0.70;;
72113;SDS011;59989;46.220;19.888;2023-07-08T10:21:51;2.15;;;0.77;;
72113;SDS011;59989;46.220;19.888;2023-07-08T10:31:38;2.53;;;0.85;;
72113;SDS011;59989;46.220;19.888;2023-07-08T10:45:10;1.80;;;0.70;;
72113;SDS011;59989;46.220;19.888;2023-07-08T10:51:41;2.40;;;0.90;;
72113;SDS011;59989;46.220;19.888;2023-07-08T10:58:20;3.10;;;0.87;;
72113;SDS011;59989;46.220;19.888;2023-07-08T11:08:16;2.15;;;0.70;;
72113;SDS011;59989;46.220;19.888;2023-07-08T11:11:27;2.65;;;1.10;;
72113;SDS011;59989;46.220;19.888;2023-07-08T11:14:45;2.13;;;0.80;;
72113;SDS011;59989;46.220;19.888;2023-07-08T11:18:01;2.20;;;0.88;;
72113;SDS011;59989;46.220;19.888;2023-07-08T11:21:06;2.63;;;0.90;;
72113;SDS011;59989;46.220;19.888;2023-07-08T11:27:37;2.53;;;1.10;;
72113;SDS011;59989;46.220;19.888;2023-07-08T11:30:43;2.10;;;0.80;;
72113;SDS011;59989;46.220;19.888;2023-07-08T11:33:49;2.42;;;0.95;;
72113;SDS011;59989;46.220;19.888;2023-07-08T11:36:53;3.22;;;1.23;;
72113;SDS011;59989;46.220;19.888;2023-07-08T11:40:07;2.20;;;0.85;;
72113;SDS011;59989;46.220;19.888;2023-07-08T11:43:12;2.92;;;1.05;;
72113;SDS011;59989;46.220;19.888;2023-07-08T11:46:22;2.30;;;0.80;;
72113;SDS011;59989;46.220;19.888;2023-07-08T11:49:27;3.08;;;0.90;;
72113;SDS011;59989;46.220;19.888;2023-07-08T11:52:30;2.38;;;0.80;;
72113;SDS011;59989;46.220;19.888;2023-07-08T11:59:16;2.30;;;0.90;;
72113;SDS011;59989;46.220;19.888;2023-07-08T12:02:20;2.80;;;1.03;;
72113;SDS011;59989;46.220;19.888;2023-07-08T12:05:29;2.70;;;1.00;;
72113;SDS011;59989;46.220;19.888;2023-07-08T12:08:39;2.50;;;1.00;;
72113;SDS011;59989;46.220;19.888;2023-07-08T12:11:44;2.03;;;0.75;;
72113;SDS011;59989;46.220;19.888;2023-07-08T12:14:48;3.35;;;1.08;;
72113;SDS011;59989;46.220;19.888;2023-07-08T12:17:52;2.00;;;0.80;;
72113;SDS011;59989;46.220;19.888;2023-07-08T12:20:57;2.55;;;0.88;;
72113;SDS011;59989;46.220;19.888;2023-07-08T12:24:05;1.90;;;0.70;;
72113;SDS011;59989;46.220;19.888;2023-07-08T12:27:09;2.92;;;1.10;;
72113;SDS011;59989;46.220;19.888;2023-07-08T12:30:13;2.58;;;1.00;;
72113;SDS011;59989;46.220;19.888;2023-07-08T12:33:30;2.53;;;1.00;;
72113;SDS011;59989;46.220;19.888;2023-07-08T12:36:35;3.20;;;1.00;;
72113;SDS011;59989;46.220;19.888;2023-07-08T12:39:38;3.35;;;1.40;;
72113;SDS011;59989;46.220;19.888;2023-07-08T12:42:41;2.67;;;1.10;;
72113;SDS011;59989;46.220;19.888;2023-07-08T12:45:43;2.83;;;1.05;;
72113;SDS011;59989;46.220;19.888;2023-07-08T12:48:46;2.80;;;1.00;;
72113;SDS011;59989;46.220;19.888;2023-07-08T12:51:49;2.58;;;1.00;;
72113;SDS011;59989;46.220;19.888;2023-07-08T12:54:52;2.70;;;1.10;;
72113;SDS011;59989;46.220;19.888;2023-07-08T12:57:55;2.90;;;1.00;;
72113;SDS011;59989;46.220;19.888;2023-07-08T13:00:58;2.80;;;1.10;;
72113;SDS011;59989;46.220;19.888;2023-07-08T13:04:09;3.10;;;1.13;;
72113;SDS011;59989;46.220;19.888;2023-07-08T13:07:18;3.35;;;1.40;;
72113;SDS011;59989;46.220;19.888;2023-07-08T13:10:29;3.78;;;1.55;;
72113;SDS011;59989;46.220;19.888;2023-07-08T13:13:42;3.22;;;1.23;;
72113;SDS011;59989;46.220;19.888;2023-07-08T13:16:55;3.30;;;1.30;;
72113;SDS011;59989;46.220;19.888;2023-07-08T13:19:58;3.13;;;1.23;;
72113;SDS011;59989;46.220;19.888;2023-07-08T13:23:01;3.35;;;1.30;;
72113;SDS011;59989;46.220;19.888;2023-07-08T13:26:14;3.03;;;1.20;;
72113;SDS011;59989;46.220;19.888;2023-07-08T13:29:19;3.28;;;1.30;;
72113;SDS011;59989;46.220;19.888;2023-07-08T13:32:30;3.42;;;1.40;;
72113;SDS011;59989;46.220;19.888;2023-07-08T13:35:37;3.60;;;1.50;;
72113;SDS011;59989;46.220;19.888;2023-07-08T13:38:41;3.50;;;1.48;;
72113;SDS011;59989;46.220;19.888;2023-07-08T13:41:44;3.83;;;1.60;;
72113;SDS011;59989;46.220;19.888;2023-07-08T13:44:48;3.90;;;1.70;;
72113;SDS011;59989;46.220;19.888;2023-07-08T13:48:02;4.28;;;1.77;;
72113;SDS011;59989;46.220;19.888;2023-07-08T13:51:16;4.00;;;1.63;;
72113;SDS011;59989;46.220;19.888;2023-07-08T13:54:25;3.90;;;1.60;;
72113;SDS011;59989;46.220;19.888;2023-07-08T13:57:36;4.10;;;1.60;;
72113;SDS011;59989;46.220;19.888;2023-07-08T14:00:40;4.10;;;1.77;;
72113;SDS011;59989;46.220;19.888;2023-07-08T14:03:43;4.30;;;1.80;;
72113;SDS011;59989;46.220;19.888;2023-07-08T14:06:47;4.13;;;1.63;;
72113;SDS011;59989;46.220;19.888;2023-07-08T14:09:49;3.63;;;1.50;;
72113;SDS011;59989;46.220;19.888;2023-07-08T14:12:51;4.03;;;1.83;;
72113;SDS011;59989;46.220;19.888;2023-07-08T14:15:54;3.83;;;1.60;;
72113;SDS011;59989;46.220;19.888;2023-07-08T14:18:58;4.25;;;1.80;;
72113;SDS011;59989;46.220;19.888;2023-07-08T14:25:17;5.45;;;1.77;;
72113;SDS011;59989;46.220;19.888;2023-07-08T14:28:22;4.38;;;1.95;;
72113;SDS011;59989;46.220;19.888;2023-07-08T14:31:25;3.95;;;1.60;;
72113;SDS011;59989;46.220;19.888;2023-07-08T14:34:28;4.03;;;1.77;;
72113;SDS011;59989;46.220;19.888;2023-07-08T14:37:30;4.00;;;1.70;;
72113;SDS011;59989;46.220;19.888;2023-07-08T14:40:34;6.95;;;2.17;;
72113;SDS011;59989;46.220;19.888;2023-07-08T14:43:41;4.38;;;1.70;;
72113;SDS011;59989;46.220;19.888;2023-07-08T14:46:45;3.75;;;1.70;;
72113;SDS011;59989;46.220;19.888;2023-07-08T14:49:48;3.95;;;1.70;;
72113;SDS011;59989;46.220;19.888;2023-07-08T14:52:51;4.23;;;1.80;;
72113;SDS011;59989;46.220;19.888;2023-07-08T14:55:55;3.92;;;1.70;;
72113;SDS011;59989;46.220;19.888;2023-07-08T14:58:59;3.90;;;1.65;;
72113;SDS011;59989;46.220;19.888;2023-07-08T15:02:12;4.30;;;1.80;;
72113;SDS011;59989;46.220;19.888;2023-07-08T15:05:22;4.25;;;1.83;;
72113;SDS011;59989;46.220;19.888;2023-07-08T15:08:26;3.67;;;1.60;;
72113;SDS011;59989;46.220;19.888;2023-07-08T15:11:29;3.80;;;1.50;;
72113;SDS011;59989;46.220;19.888;2023-07-08T15:14:32;4.35;;;1.83;;
72113;SDS011;59989;46.220;19.888;2023-07-08T15:17:35;4.15;;;1.70;;
72113;SDS011;59989;46.220;19.888;2023-07-08T15:20:38;3.78;;;1.58;;
72113;SDS011;59989;46.220;19.888;2023-07-08T15:23:40;3.83;;;1.60;;
72113;SDS011;59989;46.220;19.888;2023-07-08T15:26:44;4.15;;;1.67;;
72113;SDS011;59989;46.220;19.888;2023-07-08T15:29:50;3.80;;;1.60;;
72113;SDS011;59989;46.220;19.888;2023-07-08T15:32:53;3.95;;;1.73;;
72113;SDS011;59989;46.220;19.888;2023-07-08T15:35:56;3.95;;;1.73;;
72113;SDS011;59989;46.220;19.888;2023-07-08T15:38:59;3.77;;;1.57;;
72113;SDS011;59989;46.220;19.888;2023-07-08T15:42:01;4.32;;;1.85;;
72113;SDS011;59989;46.220;19.888;2023-07-08T15:45:25;4.15;;;1.70;;
72113;SDS011;59989;46.220;19.888;2023-07-08T15:48:27;3.75;;;1.58;;
72113;SDS011;59989;46.220;19.888;2023-07-08T15:51:30;4.03;;;1.80;;
72113;SDS011;59989;46.220;19.888;2023-07-08T15:54:32;3.97;;;1.67;;
72113;SDS011;59989;46.220;19.888;2023-07-08T15:57:37;3.67;;;1.65;;
72113;SDS011;59989;46.220;19.888;2023-07-08T16:00:48;3.75;;;1.55;;
72113;SDS011;59989;46.220;19.888;2023-07-08T16:03:50;4.05;;;1.75;;
72113;SDS011;59989;46.220;19.888;2023-07-08T16:06:53;3.70;;;1.50;;
72113;SDS011;59989;46.220;19.888;2023-07-08T16:09:56;3.80;;;1.50;;
72113;SDS011;59989;46.220;19.888;2023-07-08T16:12:59;4.15;;;1.55;;
72113;SDS011;59989;46.220;19.888;2023-07-08T16:16:05;4.65;;;1.73;;
72113;SDS011;59989;46.220;19.888;2023-07-08T16:19:11;3.25;;;1.30;;
72113;SDS011;59989;46.220;19.888;2023-07-08T16:22:15;2.80;;;1.10;;
72113;SDS011;59989;46.220;19.888;2023-07-08T16:25:19;4.10;;;1.60;;
72113;SDS011;59989;46.220;19.888;2023-07-08T16:28:41;3.10;;;1.25;;
72113;SDS011;59989;46.220;19.888;2023-07-08T16:31:45;3.75;;;1.52;;
72113;SDS011;59989;46.220;19.888;2023-07-08T16:34:49;3.08;;;1.20;;
72113;SDS011;59989;46.220;19.888;2023-07-08T16:37:52;3.53;;;1.52;;
72113;SDS011;59989;46.220;19.888;2023-07-08T16:40:55;3.43;;;1.37;;
72113;SDS011;59989;46.220;19.888;2023-07-08T16:43:58;3.10;;;1.20;;
72113;SDS011;59989;46.220;19.888;2023-07-08T16:47:00;2.97;;;1.10;;
72113;SDS011;59989;46.220;19.888;2023-07-08T16:50:03;2.60;;;1.00;;
72113;SDS011;59989;46.220;19.888;2023-07-08T16:53:12;3.42;;;1.30;;
72113;SDS011;59989;46.220;19.888;2023-07-08T16:56:18;3.67;;;1.40;;
72113;SDS011;59989;46.220;19.888;2023-07-08T16:59:21;3.33;;;1.30;;
72113;SDS011;59989;46.220;19.888;2023-07-08T17:02:23;3.25;;;1.42;;
72113;SDS011;59989;46.220;19.888;2023-07-08T17:05:28;3.25;;;1.20;;
72113;SDS011;59989;46.220;19.888;2023-07-08T17:08:32;3.10;;;1.20;;
72113;SDS011;59989;46.220;19.888;2023-07-08T17:11:35;3.10;;;1.40;;
72113;SDS011;59989;46.220;19.888;2023-07-08T17:14:38;2.00;;;0.70;;
72113;SDS011;59989;46.220;19.888;2023-07-08T17:17:46;3.45;;;1.35;;
72113;SDS011;59989;46.220;19.888;2023-07-08T17:20:58;1.80;;;0.60;;
72113;SDS011;59989;46.220;19.888;2023-07-08T17:24:02;1.70;;;0.60;;
72113;SDS011;59989;46.220;19.888;2023-07-08T17:27:05;1.50;;;0.50;;
72113;SDS011;59989;46.220;19.888;2023-07-08T17:30:08;2.47;;;0.75;;
72113;SDS011;59989;46.220;19.888;2023-07-08T17:33:13;3.10;;;1.05;;
72113;SDS011;59989;46.220;19.888;2023-07-08T17:36:18;2.05;;;0.73;;
72113;SDS011;59989;46.220;19.888;2023-07-08T17:39:24;1.88;;;0.70;;
72113;SDS011;59989;46.220;19.888;2023-07-08T17:42:26;2.43;;;1.00;;
72113;SDS011;59989;46.220;19.888;2023-07-08T17:45:32;1.98;;;0.80;;
72113;SDS011;59989;46.220;19.888;2023-07-08T17:48:35;2.08;;;0.80;;
72113;SDS011;59989;46.220;19.888;2023-07-08T17:51:38;1.65;;;0.60;;
72113;SDS011;59989;46.220;19.888;2023-07-08T17:54:41;1.40;;;0.50;;
72113;SDS011;59989;46.220;19.888;2023-07-08T17:57:45;1.40;;;0.50;;
72113;SDS011;59989;46.220;19.888;2023-07-08T18:00:50;1.75;;;0.60;;
72113;SDS011;59989;46.220;19.888;2023-07-08T18:03:53;1.65;;;0.60;;
72113;SDS011;59989;46.220;19.888;2023-07-08T18:06:56;1.58;;;0.55;;
72113;SDS011;59989;46.220;19.888;2023-07-08T18:09:58;1.40;;;0.50;;
72113;SDS011;59989;46.220;19.888;2023-07-08T18:13:01;2.03;;;0.70;;
72113;SDS011;59989;46.220;19.888;2023-07-08T18:16:12;2.28;;;0.80;;
72113;SDS011;59989;46.220;19.888;2023-07-08T18:19:16;2.10;;;0.57;;
72113;SDS011;59989;46.220;19.888;2023-07-08T18:22:18;1.77;;;0.60;;
72113;SDS011;59989;46.220;19.888;2023-07-08T18:25:22;2.70;;;0.80;;
72113;SDS011;59989;46.220;19.888;2023-07-08T18:28:26;1.40;;;0.53;;
72113;SDS011;59989;46.220;19.888;2023-07-08T18:31:30;1.48;;;0.52;;
72113;SDS011;59989;46.220;19.888;2023-07-08T18:34:36;1.85;;;0.70;;
72113;SDS011;59989;46.220;19.888;2023-07-08T18:37:39;1.50;;;0.65;;
72113;SDS011;59989;46.220;19.888;2023-07-08T18:40:42;1.75;;;0.82;;
72113;SDS011;59989;46.220;19.888;2023-07-08T18:43:45;1.57;;;0.57;;
72113;SDS011;59989;46.220;19.888;2023-07-08T18:46:48;2.08;;;0.63;;
72113;SDS011;59989;46.220;19.888;2023-07-08T18:49:51;1.73;;;0.60;;
72113;SDS011;59989;46.220;19.888;2023-07-08T18:52:54;1.85;;;0.70;;
72113;SDS011;59989;46.220;19.888;2023-07-08T18:55:58;5.45;;;1.00;;
72113;SDS011;59989;46.220;19.888;2023-07-08T18:59:00;1.30;;;0.43;;
72113;SDS011;59989;46.220;19.888;2023-07-08T19:02:04;1.42;;;0.50;;
72113;SDS011;59989;46.220;19.888;2023-07-08T19:05:35;1.75;;;0.50;;
72113;SDS011;59989;46.220;19.888;2023-07-08T19:08:37;1.75;;;0.75;;
72113;SDS011;59989;46.220;19.888;2023-07-08T19:11:40;1.42;;;0.52;;
72113;SDS011;59989;46.220;19.888;2023-07-08T19:14:43;1.07;;;0.40;;